createdAt,value
2023-04-27T00:00:11.525Z,100083.16
2023-04-27T00:01:12.933Z,100087.25
2023-04-27T00:02:09.791Z,100088.19
2023-04-27T00:03:07.747Z,100078.38
2023-04-27T00:04:05.238Z,100080.91
2023-04-27T00:05:02.921Z,100082.84
2023-04-27T00:06:00.024Z,100079.19
2023-04-27T00:06:56.925Z,100075.78
2023-04-27T00:07:53.766Z,100075.91
2023-04-27T00:08:51.255Z,100078.47
2023-04-27T00:09:48.165Z,100077.87
2023-04-27T00:10:45.024Z,100077.34
2023-04-27T00:11:41.940Z,100078.88
2023-04-27T00:12:39.443Z,100080.84
2023-04-27T00:13:36.278Z,100080.31
2023-04-27T00:14:33.151Z,100081.00
2023-04-27T00:15:30.266Z,100087.31
2023-04-27T00:16:27.103Z,100079.72
2023-04-27T00:17:24.098Z,100086.00
2023-04-27T00:18:21.150Z,100076.44
2023-04-27T00:19:17.959Z,100077.56
2023-04-27T00:20:14.884Z,100082.13
2023-04-27T00:21:11.796Z,100077.72
2023-04-27T00:22:09.188Z,100076.62
2023-04-27T00:23:06.309Z,100076.62
2023-04-27T00:24:03.144Z,100081.00
2023-04-27T00:24:59.978Z,100082.19
2023-04-27T00:25:56.824Z,100076.72
2023-04-27T00:26:53.703Z,100080.81
2023-04-27T00:27:50.707Z,100079.69
2023-04-27T00:28:47.527Z,100080.72
2023-04-27T00:29:44.436Z,100072.19
2023-04-27T00:30:41.229Z,100077.66
2023-04-27T00:31:38.175Z,100068.50
2023-04-27T00:32:35.072Z,100068.66
2023-04-27T00:33:31.970Z,100069.94
2023-04-27T00:34:28.818Z,100070.41
2023-04-27T00:35:25.677Z,100075.53
2023-04-27T00:36:22.548Z,100069.25
2023-04-27T00:37:19.747Z,100071.25
2023-04-27T00:38:16.521Z,100077.37
2023-04-27T00:39:13.457Z,100073.75
2023-04-27T00:40:10.895Z,100075.00
2023-04-27T00:41:08.576Z,100074.37
2023-04-27T00:42:06.056Z,100079.78
2023-04-27T00:43:02.908Z,100078.94
2023-04-27T00:43:59.797Z,100078.03
2023-04-27T00:44:58.886Z,100080.94
2023-04-27T00:45:56.074Z,100079.66
2023-04-27T00:46:56.021Z,100076.12
2023-04-27T00:47:53.013Z,100081.81
2023-04-27T00:48:49.919Z,100081.41
2023-04-27T00:49:46.942Z,100080.81
2023-04-27T00:50:43.817Z,100083.59
2023-04-27T00:51:41.017Z,100079.06
2023-04-27T00:52:38.377Z,100081.59
2023-04-27T00:53:36.945Z,100084.28
2023-04-27T00:54:33.842Z,100084.78
2023-04-27T00:55:31.097Z,100090.97
2023-04-27T00:56:27.908Z,100091.87
2023-04-27T00:57:25.399Z,100086.91
2023-04-27T00:58:23.313Z,100089.44
2023-04-27T00:59:20.439Z,100091.87
2023-04-27T01:00:17.348Z,100090.41
2023-04-27T01:01:14.709Z,100094.66
2023-04-27T01:02:12.489Z,100089.06
2023-04-27T01:03:10.041Z,100091.25
2023-04-27T01:04:07.154Z,100095.50
2023-04-27T01:05:04.325Z,100091.87
2023-04-27T01:06:01.951Z,100093.31
2023-04-27T01:06:58.858Z,100092.44
2023-04-27T01:07:56.182Z,100083.00
2023-04-27T01:08:53.033Z,100090.09
2023-04-27T01:09:49.970Z,100091.06
2023-04-27T01:10:46.744Z,100092.69
2023-04-27T01:11:43.597Z,100098.09
2023-04-27T01:12:41.347Z,100087.22
2023-04-27T01:13:38.253Z,100089.38
2023-04-27T01:14:36.585Z,100091.53
2023-04-27T01:15:33.434Z,100091.97
2023-04-27T01:16:30.382Z,100091.47
2023-04-27T01:17:27.284Z,100087.53
2023-04-27T01:18:24.644Z,100082.72
2023-04-27T01:19:22.819Z,100089.38
2023-04-27T01:20:20.507Z,100089.50
2023-04-27T01:21:17.277Z,100086.19
2023-04-27T01:22:15.441Z,100089.44
2023-04-27T01:23:17.246Z,100094.19
2023-04-27T01:24:14.453Z,100096.56
2023-04-27T01:25:12.801Z,100099.47
2023-04-27T01:26:12.072Z,100090.84
2023-04-27T01:27:09.053Z,100092.44
2023-04-27T01:28:05.884Z,100094.94
2023-04-27T01:29:03.111Z,100092.59
2023-04-27T01:29:59.964Z,100092.66
2023-04-27T01:30:56.931Z,100095.00
2023-04-27T01:31:53.916Z,100087.13
2023-04-27T01:32:51.164Z,100097.06
2023-04-27T01:33:47.944Z,100090.97
2023-04-27T01:34:44.923Z,100093.16
2023-04-27T01:35:41.804Z,100093.53
2023-04-27T01:36:39.185Z,100102.38
2023-04-27T01:37:36.209Z,100104.47
2023-04-27T01:38:33.864Z,100103.62
2023-04-27T01:39:30.716Z,100112.84
2023-04-27T01:40:27.637Z,100104.66
2023-04-27T01:41:24.476Z,100106.97
2023-04-27T01:42:21.335Z,100108.53
2023-04-27T01:43:18.650Z,100111.56
2023-04-27T01:44:15.527Z,100110.47
2023-04-27T01:45:12.599Z,100106.22
2023-04-27T01:46:11.860Z,100106.47
2023-04-27T01:47:08.858Z,100107.94
2023-04-27T01:48:06.557Z,100106.22
2023-04-27T01:49:03.665Z,100109.13
2023-04-27T01:50:00.557Z,100105.50
2023-04-27T01:50:57.559Z,100102.22
2023-04-27T01:51:54.376Z,100112.03
2023-04-27T01:52:51.228Z,100106.34
2023-04-27T01:53:48.136Z,100107.47
2023-04-27T01:54:44.937Z,100107.22
2023-04-27T01:55:42.229Z,100107.31
2023-04-27T01:56:39.095Z,100107.97
2023-04-27T01:57:36.078Z,100113.53
2023-04-27T01:58:32.889Z,100110.97
2023-04-27T01:59:29.680Z,100117.88
2023-04-27T02:00:26.586Z,100107.97
2023-04-27T02:01:23.496Z,100113.53
2023-04-27T02:02:20.428Z,100111.72
2023-04-27T02:03:17.597Z,100114.97
2023-04-27T02:04:15.724Z,100113.75
2023-04-27T02:05:12.825Z,100118.47
2023-04-27T02:06:09.751Z,100122.84
2023-04-27T02:07:06.888Z,100112.66
2023-04-27T02:08:03.813Z,100116.41
2023-04-27T02:09:00.625Z,100119.56
2023-04-27T02:09:57.539Z,100118.97
2023-04-27T02:10:54.368Z,100118.87
2023-04-27T02:11:51.214Z,100121.28
2023-04-27T02:12:48.787Z,100116.19
2023-04-27T02:13:45.871Z,100116.44
2023-04-27T02:14:42.998Z,100112.56
2023-04-27T02:15:39.805Z,100116.91
2023-04-27T02:16:36.779Z,100111.47
2023-04-27T02:17:36.872Z,100114.00
2023-04-27T02:18:33.981Z,100113.03
2023-04-27T02:19:30.829Z,100121.72
2023-04-27T02:20:30.489Z,100123.16
2023-04-27T02:21:28.650Z,100112.63
2023-04-27T02:22:25.550Z,100114.47
2023-04-27T02:23:22.478Z,100121.50
2023-04-27T02:24:19.356Z,100121.03
2023-04-27T02:25:16.267Z,100123.44
2023-04-27T02:26:20.576Z,100116.06
2023-04-27T02:27:17.419Z,100118.78
2023-04-27T02:28:14.955Z,100125.47
2023-04-27T02:29:12.556Z,100117.72
2023-04-27T02:30:11.878Z,100116.13
2023-04-27T02:31:09.268Z,100109.38
2023-04-27T02:32:07.176Z,100113.25
2023-04-27T02:33:04.056Z,100112.28
2023-04-27T02:34:01.162Z,100110.47
2023-04-27T02:34:58.008Z,100113.16
2023-04-27T02:35:54.896Z,100114.94
2023-04-27T02:36:52.119Z,100112.75
2023-04-27T02:37:49.997Z,100112.88
2023-04-27T02:38:46.935Z,100112.75
2023-04-27T02:39:43.737Z,100111.03
2023-04-27T02:40:40.633Z,100111.31
2023-04-27T02:41:37.562Z,100108.28
2023-04-27T02:42:34.568Z,100103.19
2023-04-27T02:43:31.434Z,100112.53
2023-04-27T02:44:28.278Z,100115.00
2023-04-27T02:45:25.157Z,100112.63
2023-04-27T02:46:22.085Z,100113.44
2023-04-27T02:47:19.528Z,100111.41
2023-04-27T02:48:16.659Z,100110.16
2023-04-27T02:49:13.820Z,100120.41
2023-04-27T02:50:11.063Z,100115.22
2023-04-27T02:51:07.881Z,100109.22
2023-04-27T02:52:04.973Z,100120.91
2023-04-27T02:53:02.895Z,100118.25
2023-04-27T02:53:59.704Z,100120.97
2023-04-27T02:54:56.659Z,100121.59
2023-04-27T02:55:53.542Z,100119.75
2023-04-27T02:56:50.706Z,100113.78
2023-04-27T02:57:47.504Z,100117.00
2023-04-27T02:58:45.052Z,100119.47
2023-04-27T02:59:41.929Z,100117.00
2023-04-27T03:00:41.110Z,100124.13
2023-04-27T03:01:38.010Z,100126.09
2023-04-27T03:02:35.143Z,100127.66
2023-04-27T03:03:32.274Z,100121.84
2023-04-27T03:04:29.312Z,100127.03
2023-04-27T03:05:28.474Z,100124.78
2023-04-27T03:06:25.813Z,100125.19
2023-04-27T03:07:23.104Z,100121.91
2023-04-27T03:08:19.916Z,100140.25
2023-04-27T03:09:17.296Z,100131.75
2023-04-27T03:10:14.393Z,100127.69
2023-04-27T03:11:12.692Z,100133.84
2023-04-27T03:12:09.505Z,100129.81
2023-04-27T03:13:06.757Z,100130.75
2023-04-27T03:14:04.204Z,100131.94
2023-04-27T03:15:01.366Z,100128.31
2023-04-27T03:15:58.280Z,100145.13
2023-04-27T03:16:57.211Z,100129.28
2023-04-27T03:17:54.079Z,100125.16
2023-04-27T03:18:51.044Z,100134.84
2023-04-27T03:19:49.483Z,100138.97
2023-04-27T03:20:46.643Z,100139.66
2023-04-27T03:21:43.518Z,100131.94
2023-04-27T03:22:40.411Z,100128.59
2023-04-27T03:23:37.271Z,100136.13
2023-04-27T03:24:34.518Z,100135.78
2023-04-27T03:25:31.453Z,100133.66
2023-04-27T03:26:28.481Z,100131.25
2023-04-27T03:27:25.536Z,100134.34
2023-04-27T03:28:22.437Z,100142.66
2023-04-27T03:29:19.500Z,100144.03
2023-04-27T03:30:16.359Z,100143.25
2023-04-27T03:31:14.438Z,100150.88
2023-04-27T03:32:11.439Z,100152.31
2023-04-27T03:33:08.536Z,100152.22
2023-04-27T03:34:05.585Z,100153.25
2023-04-27T03:35:03.278Z,100156.28
2023-04-27T03:36:00.706Z,100157.62
2023-04-27T03:36:57.956Z,100160.53
2023-04-27T03:37:54.863Z,100156.44
2023-04-27T03:38:51.721Z,100157.81
2023-04-27T03:39:48.611Z,100159.53
2023-04-27T03:40:45.446Z,100160.81
2023-04-27T03:41:42.391Z,100155.94
2023-04-27T03:42:39.286Z,100162.28
2023-04-27T03:43:36.432Z,100158.47
2023-04-27T03:44:34.345Z,100164.81
2023-04-27T03:45:31.373Z,100165.66
2023-04-27T03:46:28.339Z,100168.72
2023-04-27T03:47:25.238Z,100159.97
2023-04-27T03:48:22.662Z,100161.66
2023-04-27T03:49:19.538Z,100157.81
2023-04-27T03:50:16.582Z,100160.38
2023-04-27T03:51:13.936Z,100155.34
2023-04-27T03:52:11.347Z,100157.06
2023-04-27T03:53:08.483Z,100163.47
2023-04-27T03:54:05.791Z,100159.25
2023-04-27T03:55:02.652Z,100158.69
2023-04-27T03:55:59.479Z,100163.03
2023-04-27T03:56:56.333Z,100160.91
2023-04-27T03:57:53.136Z,100160.25
2023-04-27T03:58:49.943Z,100167.78
2023-04-27T03:59:46.857Z,100162.31
2023-04-27T04:00:43.796Z,100163.78
2023-04-27T04:01:41.490Z,100167.31
2023-04-27T04:02:38.632Z,100170.81
2023-04-27T04:03:36.113Z,100169.44
2023-04-27T04:04:33.157Z,100167.59
2023-04-27T04:05:33.454Z,100173.19
2023-04-27T04:06:31.354Z,100167.47
2023-04-27T04:07:28.161Z,100166.09
2023-04-27T04:08:25.763Z,100171.47
2023-04-27T04:09:23.920Z,100166.19
2023-04-27T04:10:21.318Z,100168.47
2023-04-27T04:11:18.245Z,100171.75
2023-04-27T04:12:15.054Z,100163.84
2023-04-27T04:13:11.914Z,100171.22
2023-04-27T04:14:08.794Z,100168.28
2023-04-27T04:15:06.371Z,100167.66
2023-04-27T04:16:06.814Z,100170.56
2023-04-27T04:17:03.723Z,100170.22
2023-04-27T04:18:00.695Z,100168.91
2023-04-27T04:18:57.614Z,100169.84
2023-04-27T04:19:54.435Z,100173.03
2023-04-27T04:20:51.378Z,100177.38
2023-04-27T04:21:48.294Z,100174.12
2023-04-27T04:22:45.395Z,100176.56
2023-04-27T04:23:42.326Z,100180.56
2023-04-27T04:24:40.328Z,100181.19
2023-04-27T04:25:37.447Z,100176.69
2023-04-27T04:26:34.318Z,100176.22
2023-04-27T04:27:34.073Z,100172.69
2023-04-27T04:28:31.360Z,100182.25
2023-04-27T04:29:28.915Z,100173.38
2023-04-27T04:30:26.493Z,100180.44
2023-04-27T04:31:23.591Z,100182.59
2023-04-27T04:32:20.514Z,100186.28
2023-04-27T04:33:17.754Z,100180.34
2023-04-27T04:34:14.761Z,100182.78
2023-04-27T04:35:12.044Z,100185.78
2023-04-27T04:36:09.132Z,100181.75
2023-04-27T04:37:05.992Z,100179.78
2023-04-27T04:38:02.845Z,100177.94
2023-04-27T04:39:00.648Z,100177.03
2023-04-27T04:39:57.487Z,100176.63
2023-04-27T04:40:54.358Z,100187.47
2023-04-27T04:41:51.267Z,100179.97
2023-04-27T04:42:48.213Z,100176.19
2023-04-27T04:43:45.081Z,100184.66
2023-04-27T04:44:42.324Z,100179.75
2023-04-27T04:45:39.175Z,100180.50
2023-04-27T04:46:37.564Z,100176.72
2023-04-27T04:47:34.724Z,100174.88
2023-04-27T04:48:32.586Z,100184.47
2023-04-27T04:49:29.447Z,100172.19
2023-04-27T04:50:26.271Z,100169.06
2023-04-27T04:51:23.143Z,100173.69
2023-04-27T04:52:19.952Z,100177.06
2023-04-27T04:53:16.870Z,100180.00
2023-04-27T04:54:14.001Z,100172.41
2023-04-27T04:55:11.262Z,100175.16
2023-04-27T04:56:14.091Z,100179.50
2023-04-27T04:57:10.953Z,100173.56
2023-04-27T04:58:07.905Z,100171.75
2023-04-27T04:59:04.796Z,100170.28
2023-04-27T05:00:02.202Z,100176.19
2023-04-27T05:00:59.059Z,100179.09
2023-04-27T05:01:56.115Z,100176.09
2023-04-27T05:02:53.709Z,100178.63
2023-04-27T05:03:50.880Z,100182.75
2023-04-27T05:04:48.171Z,100181.22
2023-04-27T05:05:45.104Z,100177.97
2023-04-27T05:06:41.886Z,100183.41
2023-04-27T05:07:38.810Z,100179.72
2023-04-27T05:08:36.095Z,100173.03
2023-04-27T05:09:33.079Z,100174.12
2023-04-27T05:10:29.902Z,100177.91
2023-04-27T05:11:27.271Z,100181.56
2023-04-27T05:12:24.144Z,100175.78
2023-04-27T05:13:21.691Z,100177.66
2023-04-27T05:14:18.487Z,100179.25
2023-04-27T05:15:16.168Z,100190.19
2023-04-27T05:16:13.021Z,100183.47
2023-04-27T05:17:09.975Z,100182.28
2023-04-27T05:18:06.883Z,100188.81
2023-04-27T05:19:06.099Z,100190.34
2023-04-27T05:20:03.031Z,100189.13
2023-04-27T05:21:00.232Z,100192.63
2023-04-27T05:21:58.850Z,100186.94
2023-04-27T05:22:55.872Z,100202.91
2023-04-27T05:23:52.814Z,100195.53
2023-04-27T05:24:49.987Z,100200.50
2023-04-27T05:25:46.793Z,100198.00
2023-04-27T05:26:44.698Z,100196.78
2023-04-27T05:27:41.501Z,100202.66
2023-04-27T05:28:38.283Z,100196.37
2023-04-27T05:29:35.125Z,100199.56
2023-04-27T05:30:31.958Z,100197.75
2023-04-27T05:31:28.924Z,100203.94
2023-04-27T05:32:25.955Z,100202.78
2023-04-27T05:33:22.964Z,100196.25
2023-04-27T05:34:20.265Z,100202.84
2023-04-27T05:35:17.240Z,100197.13
2023-04-27T05:36:14.193Z,100201.75
2023-04-27T05:37:11.776Z,100197.88
2023-04-27T05:38:08.585Z,100201.78
2023-04-27T05:39:05.426Z,100202.63
2023-04-27T05:40:02.418Z,100201.09
2023-04-27T05:40:59.945Z,100197.06
2023-04-27T05:41:57.620Z,100203.59
2023-04-27T05:42:54.616Z,100199.53
2023-04-27T05:43:51.670Z,100197.09
2023-04-27T05:44:48.614Z,100203.56
2023-04-27T05:45:45.638Z,100196.37
2023-04-27T05:46:42.515Z,100201.75
2023-04-27T05:47:39.380Z,100201.97
2023-04-27T05:48:36.698Z,100195.44
2023-04-27T05:49:33.543Z,100195.97
2023-04-27T05:50:30.368Z,100197.88
2023-04-27T05:51:27.291Z,100203.75
2023-04-27T05:52:29.720Z,100206.16
2023-04-27T05:53:26.636Z,100204.31
2023-04-27T05:54:23.470Z,100200.75
2023-04-27T05:55:20.736Z,100205.66
2023-04-27T05:56:17.586Z,100205.69
2023-04-27T05:57:14.930Z,100211.59
2023-04-27T05:58:11.891Z,100200.88
2023-04-27T05:59:08.707Z,100199.03
2023-04-27T06:00:11.211Z,100200.88
2023-04-27T06:01:08.565Z,100200.03
2023-04-27T06:02:05.501Z,100204.91
2023-04-27T06:03:02.590Z,100213.50
2023-04-27T06:04:02.087Z,100208.09
2023-04-27T06:04:59.755Z,100206.25
2023-04-27T06:05:58.895Z,100211.13
2023-04-27T06:06:56.543Z,100213.47
2023-04-27T06:07:53.447Z,100208.47
2023-04-27T06:08:50.252Z,100214.19
2023-04-27T06:09:47.085Z,100213.69
2023-04-27T06:10:43.954Z,100217.19
2023-04-27T06:11:40.970Z,100219.06
2023-04-27T06:12:38.360Z,100218.56
2023-04-27T06:13:35.250Z,100218.75
2023-04-27T06:14:33.202Z,100216.72
2023-04-27T06:15:30.167Z,100216.72
2023-04-27T06:16:27.143Z,100212.38
2023-04-27T06:17:24.148Z,100217.22
2023-04-27T06:18:21.138Z,100219.22
2023-04-27T06:19:17.972Z,100222.59
2023-04-27T06:20:16.457Z,100214.53
2023-04-27T06:21:13.387Z,100218.09
2023-04-27T06:22:11.835Z,100223.16
2023-04-27T06:23:09.068Z,100218.94
2023-04-27T06:24:06.310Z,100221.97
2023-04-27T06:25:03.915Z,100223.47
2023-04-27T06:26:02.562Z,100222.28
2023-04-27T06:26:59.506Z,100223.47
2023-04-27T06:27:57.001Z,100224.63
2023-04-27T06:28:56.409Z,100220.03
2023-04-27T06:29:53.238Z,100224.03
2023-04-27T06:30:50.877Z,100225.72
2023-04-27T06:31:47.868Z,100229.63
2023-04-27T06:32:46.221Z,100221.59
2023-04-27T06:33:43.170Z,100224.59
2023-04-27T06:34:40.042Z,100225.09
2023-04-27T06:35:37.282Z,100232.00
2023-04-27T06:36:34.183Z,100231.03
2023-04-27T06:37:31.405Z,100224.75
2023-04-27T06:38:29.349Z,100228.16
2023-04-27T06:39:26.246Z,100232.72
2023-04-27T06:40:23.197Z,100235.72
2023-04-27T06:41:20.167Z,100239.59
2023-04-27T06:42:17.121Z,100238.41
2023-04-27T06:43:14.254Z,100236.84
2023-04-27T06:44:11.382Z,100242.22
2023-04-27T06:45:08.667Z,100236.47
2023-04-27T06:46:07.215Z,100239.97
2023-04-27T06:47:04.245Z,100237.75
2023-04-27T06:48:02.619Z,100233.47
2023-04-27T06:48:59.812Z,100234.84
2023-04-27T06:49:56.765Z,100233.44
2023-04-27T06:50:53.807Z,100234.03
2023-04-27T06:51:51.549Z,100240.56
2023-04-27T06:52:48.545Z,100240.44
2023-04-27T06:53:45.479Z,100239.50
2023-04-27T06:54:42.267Z,100235.72
2023-04-27T06:55:42.444Z,100242.97
2023-04-27T06:56:41.077Z,100236.56
2023-04-27T06:57:38.054Z,100237.06
2023-04-27T06:58:34.882Z,100237.78
2023-04-27T06:59:31.794Z,100235.66
2023-04-27T07:00:28.699Z,100238.84
2023-04-27T07:01:25.750Z,100233.78
2023-04-27T07:02:25.786Z,100241.59
2023-04-27T07:03:22.973Z,100236.50
2023-04-27T07:04:20.188Z,100237.56
2023-04-27T07:05:17.209Z,100239.63
2023-04-27T07:06:14.108Z,100238.50
2023-04-27T07:07:11.017Z,100237.59
2023-04-27T07:08:08.844Z,100236.03
2023-04-27T07:09:16.342Z,100236.63
2023-04-27T07:10:23.285Z,100235.59
2023-04-27T07:11:20.336Z,100242.97
2023-04-27T07:12:17.326Z,100246.28
2023-04-27T07:13:16.566Z,100239.06
2023-04-27T07:14:13.584Z,100243.44
2023-04-27T07:15:11.476Z,100239.28
2023-04-27T07:16:08.472Z,100244.75
2023-04-27T07:17:06.410Z,100239.38
2023-04-27T07:18:03.655Z,100243.84
2023-04-27T07:19:02.084Z,100245.06
2023-04-27T07:19:59.973Z,100245.34
2023-04-27T07:20:58.237Z,100246.63
2023-04-27T07:21:55.210Z,100240.78
2023-04-27T07:22:52.086Z,100239.38
2023-04-27T07:23:53.424Z,100245.22
2023-04-27T07:24:51.395Z,100242.78
2023-04-27T07:25:48.554Z,100242.88
2023-04-27T07:26:45.787Z,100242.97
2023-04-27T07:27:43.091Z,100244.13
2023-04-27T07:28:40.376Z,100240.22
2023-04-27T07:29:38.119Z,100247.69
2023-04-27T07:30:37.091Z,100239.88
2023-04-27T07:31:33.977Z,100247.72
2023-04-27T07:32:31.261Z,100242.97
2023-04-27T07:33:28.747Z,100248.03
2023-04-27T07:34:25.723Z,100241.50
2023-04-27T07:35:22.657Z,100247.37
2023-04-27T07:36:20.014Z,100248.59
2023-04-27T07:37:17.666Z,100253.75
2023-04-27T07:38:14.491Z,100249.16
2023-04-27T07:39:11.898Z,100252.28
2023-04-27T07:40:14.885Z,100247.34
2023-04-27T07:41:11.709Z,100246.25
2023-04-27T07:42:08.908Z,100251.78
2023-04-27T07:43:05.765Z,100248.59
2023-04-27T07:44:02.793Z,100243.94
2023-04-27T07:44:59.677Z,100246.97
2023-04-27T07:45:58.720Z,100247.09
2023-04-27T07:46:58.673Z,100245.59
2023-04-27T07:47:58.286Z,100241.13
2023-04-27T07:48:56.111Z,100248.75
2023-04-27T07:49:53.206Z,100250.06
2023-04-27T07:50:51.080Z,100244.19
2023-04-27T07:51:48.321Z,100244.78
2023-04-27T07:52:45.104Z,100238.81
2023-04-27T07:53:42.226Z,100244.97
2023-04-27T07:54:39.796Z,100245.72
2023-04-27T07:55:36.966Z,100242.66
2023-04-27T07:56:33.885Z,100246.69
2023-04-27T07:57:30.807Z,100242.91
2023-04-27T07:58:28.419Z,100247.84
2023-04-27T07:59:29.206Z,100242.09
2023-04-27T08:00:27.198Z,100245.06
2023-04-27T08:01:24.396Z,100240.03
2023-04-27T08:02:21.563Z,100243.56
2023-04-27T08:03:18.777Z,100244.72
2023-04-27T08:04:16.483Z,100243.19
2023-04-27T08:05:14.423Z,100242.62
2023-04-27T08:06:12.227Z,100243.28
2023-04-27T08:07:09.743Z,100249.00
2023-04-27T08:08:07.581Z,100243.06
2023-04-27T08:09:05.276Z,100237.63
2023-04-27T08:10:02.379Z,100237.81
2023-04-27T08:10:59.307Z,100247.25
2023-04-27T08:11:58.089Z,100243.72
2023-04-27T08:12:55.066Z,100246.09
2023-04-27T08:13:52.219Z,100247.03
2023-04-27T08:14:49.200Z,100253.09
2023-04-27T08:15:46.287Z,100248.88
2023-04-27T08:16:44.114Z,100245.66
2023-04-27T08:17:42.191Z,100249.53
2023-04-27T08:18:39.436Z,100245.34
2023-04-27T08:19:36.322Z,100239.75
2023-04-27T08:20:33.915Z,100240.13
2023-04-27T08:21:31.424Z,100247.94
2023-04-27T08:22:28.921Z,100247.31
2023-04-27T08:23:29.863Z,100246.03
2023-04-27T08:24:26.734Z,100243.50
2023-04-27T08:25:24.320Z,100248.72
2023-04-27T08:26:21.289Z,100253.28
2023-04-27T08:27:18.144Z,100244.22
2023-04-27T08:28:15.931Z,100246.56
2023-04-27T08:29:26.212Z,100257.03
2023-04-27T08:30:25.054Z,100246.66
2023-04-27T08:31:22.316Z,100249.91
2023-04-27T08:32:19.153Z,100251.97
2023-04-27T08:33:16.923Z,100250.66
2023-04-27T08:34:13.914Z,100251.97
2023-04-27T08:35:11.173Z,100251.13
2023-04-27T08:36:08.343Z,100250.09
2023-04-27T08:37:05.441Z,100245.53
2023-04-27T08:38:02.937Z,100242.16
2023-04-27T08:38:59.824Z,100240.59
2023-04-27T08:39:56.809Z,100240.28
2023-04-27T08:40:53.670Z,100247.69
2023-04-27T08:41:50.564Z,100241.91
2023-04-27T08:42:58.974Z,100242.44
2023-04-27T08:43:57.349Z,100233.87
2023-04-27T08:44:55.348Z,100236.03
2023-04-27T08:45:53.186Z,100241.78
2023-04-27T08:46:51.344Z,100239.72
2023-04-27T08:47:48.276Z,100239.63
2023-04-27T08:48:45.236Z,100249.22
2023-04-27T08:49:42.762Z,100247.66
2023-04-27T08:50:41.227Z,100244.03
2023-04-27T08:51:40.605Z,100238.22
2023-04-27T08:52:38.153Z,100232.16
2023-04-27T08:53:35.182Z,100233.66
2023-04-27T08:54:32.073Z,100231.50
2023-04-27T08:55:28.962Z,100230.69
2023-04-27T08:56:28.208Z,100231.81
2023-04-27T08:57:25.001Z,100227.06
2023-04-27T08:58:22.799Z,100226.06
2023-04-27T08:59:19.689Z,100229.50
2023-04-27T09:00:16.989Z,100236.22
2023-04-27T09:01:13.885Z,100244.69
2023-04-27T09:02:22.648Z,100233.28
2023-04-27T09:03:26.287Z,100238.25
2023-04-27T09:04:23.659Z,100233.31
2023-04-27T09:05:23.184Z,100234.88
2023-04-27T09:06:29.830Z,100229.56
2023-04-27T09:07:28.555Z,100231.97
2023-04-27T09:08:26.023Z,100227.63
2023-04-27T09:09:24.193Z,100227.03
2023-04-27T09:10:21.246Z,100219.25
2023-04-27T09:11:32.717Z,100217.59
2023-04-27T09:12:29.632Z,100219.97
2023-04-27T09:13:35.792Z,100221.72
2023-04-27T09:14:36.203Z,100214.41
2023-04-27T09:15:45.698Z,100222.56
2023-04-27T09:16:44.961Z,100218.88
2023-04-27T09:17:42.018Z,100229.38
2023-04-27T09:18:42.543Z,100230.22
2023-04-27T09:19:39.439Z,100213.59
2023-04-27T09:20:52.297Z,100217.06
2023-04-27T09:21:49.462Z,100221.31
2023-04-27T09:22:47.485Z,100223.91
2023-04-27T09:23:46.838Z,100215.12
2023-04-27T09:24:54.276Z,100222.75
2023-04-27T09:25:51.086Z,100224.25
2023-04-27T09:26:50.314Z,100224.88
2023-04-27T09:27:47.251Z,100212.03
2023-04-27T09:28:48.891Z,100215.06
2023-04-27T09:29:46.132Z,100211.13
2023-04-27T09:30:52.900Z,100205.16
2023-04-27T09:31:49.980Z,100207.88
2023-04-27T09:32:57.530Z,100209.22
2023-04-27T09:33:57.640Z,100210.59
2023-04-27T09:34:54.590Z,100201.81
2023-04-27T09:35:52.024Z,100208.25
2023-04-27T09:36:49.099Z,100219.38
2023-04-27T09:37:46.019Z,100215.06
2023-04-27T09:38:43.066Z,100233.41
2023-04-27T09:39:40.253Z,100230.34
2023-04-27T09:40:39.898Z,100223.09
2023-04-27T09:41:36.864Z,100208.22
2023-04-27T09:42:33.768Z,100211.69
2023-04-27T09:43:31.673Z,100209.44
2023-04-27T09:44:29.088Z,100206.13
2023-04-27T09:45:26.191Z,100206.53
2023-04-27T09:46:23.420Z,100204.66
2023-04-27T09:47:20.661Z,100201.22
2023-04-27T09:48:18.734Z,100205.50
2023-04-27T09:49:16.402Z,100199.56
2023-04-27T09:50:14.448Z,100207.91
2023-04-27T09:51:11.375Z,100209.78
2023-04-27T09:52:08.167Z,100201.22
2023-04-27T09:53:12.954Z,100217.66
2023-04-27T09:54:11.569Z,100222.69
2023-04-27T09:55:11.394Z,100219.38
2023-04-27T09:56:26.411Z,100221.34
2023-04-27T09:57:23.180Z,100219.38
2023-04-27T09:58:43.282Z,100217.09
2023-04-27T10:00:11.246Z,100203.16
2023-04-27T10:01:26.540Z,100219.44
2023-04-27T10:02:25.676Z,100209.66
2023-04-27T10:03:44.273Z,100213.63
2023-04-27T10:05:10.507Z,100213.03
2023-04-27T10:06:07.790Z,100209.03
2023-04-27T10:07:07.748Z,100205.72
2023-04-27T10:08:06.300Z,100214.84
2023-04-27T10:09:06.574Z,100216.03
2023-04-27T10:10:05.252Z,100210.88
2023-04-27T10:11:02.439Z,100204.75
2023-04-27T10:12:43.159Z,100197.06
2023-04-27T10:13:40.070Z,100198.38
2023-04-27T10:14:36.882Z,100203.37
2023-04-27T10:15:40.227Z,100202.59
2023-04-27T10:16:52.387Z,100196.13
2023-04-27T10:17:50.701Z,100200.91
2023-04-27T10:18:57.179Z,100200.91
2023-04-27T10:19:58.195Z,100205.94
2023-04-27T10:20:55.315Z,100203.78
2023-04-27T10:22:08.608Z,100197.81
2023-04-27T10:23:05.754Z,100199.13
2023-04-27T10:24:09.442Z,100195.38
2023-04-27T10:25:19.254Z,100197.06
2023-04-27T10:26:26.097Z,100192.94
2023-04-27T10:27:25.894Z,100203.44
2023-04-27T10:28:22.747Z,100191.31
2023-04-27T10:29:20.694Z,100191.72
2023-04-27T10:30:19.154Z,100195.88
2023-04-27T10:31:16.221Z,100194.84
2023-04-27T10:32:19.108Z,100186.47
2023-04-27T10:33:20.245Z,100196.50
2023-04-27T10:34:20.677Z,100197.06
2023-04-27T10:35:18.528Z,100197.84
2023-04-27T10:36:16.225Z,100201.12
2023-04-27T10:37:14.663Z,100193.22
2023-04-27T10:38:11.486Z,100183.97
2023-04-27T10:39:27.631Z,100187.00
2023-04-27T10:40:34.158Z,100191.91
2023-04-27T10:41:36.946Z,100194.19
2023-04-27T10:42:33.747Z,100194.00
2023-04-27T10:43:32.255Z,100191.91
2023-04-27T10:44:31.357Z,100193.37
2023-04-27T10:45:31.403Z,100182.47
2023-04-27T10:46:28.760Z,100187.94
2023-04-27T10:47:41.212Z,100184.59
2023-04-27T10:48:40.959Z,100184.81
2023-04-27T10:49:38.487Z,100175.16
2023-04-27T10:50:35.818Z,100173.94
2023-04-27T10:51:33.893Z,100173.09
2023-04-27T10:52:30.740Z,100167.69
2023-04-27T10:53:28.261Z,100168.72
2023-04-27T10:54:29.430Z,100176.88
2023-04-27T10:55:27.021Z,100178.75
2023-04-27T10:56:25.029Z,100182.53
2023-04-27T10:57:21.900Z,100174.12
2023-04-27T10:58:23.588Z,100185.28
2023-04-27T10:59:21.422Z,100174.75
2023-04-27T11:00:27.143Z,100174.78
2023-04-27T11:01:25.385Z,100180.00
2023-04-27T11:02:27.153Z,100175.00
2023-04-27T11:03:25.420Z,100183.59